createdAt,value
2022-10-19T00:01:19.818Z,101639.72
2022-10-19T00:06:28.045Z,101641.09
2022-10-19T00:08:58.676Z,101635.75
2022-10-19T00:11:27.902Z,101639.38
2022-10-19T00:13:58.323Z,101639.69
2022-10-19T00:16:28.057Z,101637.13
2022-10-19T00:18:57.656Z,101631.78
2022-10-19T00:21:28.253Z,101637.97
2022-10-19T00:23:57.051Z,101639.78
2022-10-19T00:26:25.350Z,101633.59
2022-10-19T00:28:54.657Z,101636.44
2022-10-19T00:31:23.756Z,101643.75
2022-10-19T00:33:52.550Z,101647.41
2022-10-19T00:36:23.185Z,101643.97
2022-10-19T00:38:53.625Z,101644.16
2022-10-19T00:41:23.386Z,101641.59
2022-10-19T00:44:03.086Z,101638.91
2022-10-19T00:46:33.321Z,101639.87
2022-10-19T00:49:08.489Z,101633.63
2022-10-19T00:51:42.655Z,101642.59
2022-10-19T00:54:13.605Z,101631.06
2022-10-19T00:56:43.924Z,101633.81
2022-10-19T00:59:14.657Z,101633.63
2022-10-19T01:01:45.098Z,101647.78
2022-10-19T01:04:14.606Z,101640.37
2022-10-19T01:06:43.731Z,101643.66
2022-10-19T01:09:13.419Z,101640.63
2022-10-19T01:11:51.030Z,101643.06
2022-10-19T01:14:30.040Z,101636.44
2022-10-19T01:17:11.146Z,101640.50
2022-10-19T01:20:25.074Z,101636.78
2022-10-19T01:23:13.491Z,101638.94
2022-10-19T01:25:55.096Z,101637.06
2022-10-19T01:28:39.319Z,101640.59
2022-10-19T01:31:19.120Z,101642.22
2022-10-19T01:36:38.782Z,101648.31
2022-10-19T01:39:11.571Z,101655.22
2022-10-19T01:41:47.070Z,101657.00
2022-10-19T01:44:22.365Z,101648.78
2022-10-19T01:46:55.960Z,101646.31
2022-10-19T01:49:30.481Z,101646.13
2022-10-19T01:52:01.484Z,101642.78
2022-10-19T01:54:35.331Z,101652.31
2022-10-19T01:57:07.359Z,101653.94
2022-10-19T01:59:37.897Z,101657.37
2022-10-19T02:02:10.636Z,101651.91
2022-10-19T02:04:40.613Z,101652.66
2022-10-19T02:07:10.746Z,101641.13
2022-10-19T02:09:39.317Z,101630.34
2022-10-19T02:12:11.602Z,101633.87
2022-10-19T02:14:43.963Z,101628.47
2022-10-19T02:17:15.825Z,101628.56
2022-10-19T02:19:44.926Z,101627.69
2022-10-19T02:22:14.333Z,101625.12
2022-10-19T02:24:42.542Z,101622.53
2022-10-19T02:27:11.488Z,101622.63
2022-10-19T02:29:40.713Z,101621.84
2022-10-19T02:32:10.268Z,101617.63
2022-10-19T02:34:41.167Z,101614.09
2022-10-19T02:37:09.751Z,101618.75
2022-10-19T02:39:39.066Z,101619.63
2022-10-19T02:42:13.189Z,101622.44
2022-10-19T02:44:44.886Z,101618.97
2022-10-19T02:47:18.359Z,101628.03
2022-10-19T02:49:48.814Z,101628.44
2022-10-19T02:52:17.297Z,101629.22
2022-10-19T02:54:46.071Z,101632.66
2022-10-19T02:57:19.202Z,101629.06
2022-10-19T02:59:48.075Z,101633.50
2022-10-19T03:02:17.131Z,101638.94
2022-10-19T03:07:22.028Z,101635.50
2022-10-19T03:09:50.717Z,101635.88
2022-10-19T03:12:19.364Z,101637.16
2022-10-19T03:14:48.017Z,101632.91
2022-10-19T03:17:16.383Z,101641.09
2022-10-19T03:19:44.633Z,101636.06
2022-10-19T03:22:15.567Z,101650.44
2022-10-19T03:24:44.255Z,101651.03
2022-10-19T03:27:13.050Z,101651.97
2022-10-19T03:29:43.487Z,101649.31
2022-10-19T03:32:12.705Z,101649.12
2022-10-19T03:34:42.837Z,101638.59
2022-10-19T03:37:13.382Z,101636.97
2022-10-19T03:39:44.084Z,101640.59
2022-10-19T03:42:13.586Z,101637.22
2022-10-19T03:44:46.577Z,101637.63
2022-10-19T03:47:15.070Z,101640.28
2022-10-19T03:49:44.706Z,101640.28
2022-10-19T03:52:13.165Z,101627.28
2022-10-19T03:54:41.508Z,101638.81
2022-10-19T03:57:11.566Z,101636.31
2022-10-19T03:59:40.055Z,101640.94
2022-10-19T04:02:08.640Z,101642.75
2022-10-19T04:04:37.439Z,101639.22
2022-10-19T04:07:05.816Z,101643.75
2022-10-19T04:09:34.202Z,101642.97
2022-10-19T04:12:02.895Z,101642.97
2022-10-19T04:14:39.193Z,101642.84
2022-10-19T04:17:15.026Z,101650.03
2022-10-19T04:19:43.292Z,101649.03
2022-10-19T04:22:11.481Z,101655.03
2022-10-19T04:24:39.953Z,101654.28
2022-10-19T04:27:08.186Z,101655.22
2022-10-19T04:29:37.958Z,101649.81
2022-10-19T04:32:06.952Z,101656.75
2022-10-19T04:34:37.730Z,101653.16
2022-10-19T04:37:08.793Z,101653.03
2022-10-19T04:39:39.575Z,101649.63
2022-10-19T04:42:07.897Z,101653.31
2022-10-19T04:44:37.701Z,101661.06
2022-10-19T04:47:05.950Z,101660.94
2022-10-19T04:49:34.189Z,101656.28
2022-10-19T04:52:02.809Z,101652.28
2022-10-19T04:54:31.010Z,101662.69
2022-10-19T04:56:59.283Z,101657.22
2022-10-19T04:59:28.279Z,101661.50
2022-10-19T05:01:57.893Z,101661.34
2022-10-19T05:04:26.378Z,101656.72
2022-10-19T05:06:54.972Z,101660.94
2022-10-19T05:09:23.379Z,101655.34
2022-10-19T05:11:52.060Z,101657.00
2022-10-19T05:14:20.829Z,101665.69
2022-10-19T05:16:49.220Z,101661.22
2022-10-19T05:19:19.299Z,101657.50
2022-10-19T05:21:47.751Z,101664.50
2022-10-19T05:24:15.995Z,101662.59
2022-10-19T05:26:44.235Z,101661.56
2022-10-19T05:29:14.112Z,101654.34
2022-10-19T05:31:42.449Z,101657.84
2022-10-19T05:34:10.821Z,101666.50
2022-10-19T05:36:41.599Z,101663.72
2022-10-19T05:39:13.516Z,101660.97
2022-10-19T05:41:44.327Z,101666.06
2022-10-19T05:44:16.324Z,101667.87
2022-10-19T05:46:45.496Z,101669.59
2022-10-19T05:49:14.813Z,101673.03
2022-10-19T05:51:44.556Z,101666.56
2022-10-19T05:54:14.411Z,101669.16
2022-10-19T05:56:43.508Z,101665.38
2022-10-19T05:59:14.988Z,101675.00
2022-10-19T06:01:43.744Z,101676.69
2022-10-19T06:04:14.081Z,101680.91
2022-10-19T06:06:44.538Z,101683.41
2022-10-19T06:09:13.699Z,101676.16
2022-10-19T06:11:43.353Z,101678.84
2022-10-19T06:14:15.422Z,101683.12
2022-10-19T06:16:46.062Z,101683.12
2022-10-19T06:19:14.792Z,101689.19
2022-10-19T06:21:45.931Z,101690.81
2022-10-19T06:24:14.612Z,101695.91
2022-10-19T06:26:42.871Z,101700.19
2022-10-19T06:29:11.560Z,101697.25
2022-10-19T06:31:39.999Z,101698.63
2022-10-19T06:34:09.838Z,101698.28
2022-10-19T06:36:38.071Z,101706.12
2022-10-19T06:39:07.994Z,101700.50
2022-10-19T06:41:36.243Z,101702.22
2022-10-19T06:44:10.532Z,101707.41
2022-10-19T06:46:39.673Z,101709.97
2022-10-19T06:49:08.221Z,101700.94
2022-10-19T06:51:36.455Z,101712.13
2022-10-19T06:54:04.884Z,101722.44
2022-10-19T06:56:34.911Z,101721.94
2022-10-19T06:59:03.497Z,101718.56
2022-10-19T07:01:31.842Z,101727.16
2022-10-19T07:04:00.371Z,101730.78
2022-10-19T07:06:29.312Z,101720.59
2022-10-19T07:08:57.716Z,101725.59
2022-10-19T07:11:28.021Z,101724.53
2022-10-19T07:13:57.799Z,101729.28
2022-10-19T07:16:26.416Z,101730.31
2022-10-19T07:18:54.796Z,101737.22
2022-10-19T07:21:24.124Z,101745.03
2022-10-19T07:23:53.063Z,101742.19
2022-10-19T07:26:24.555Z,101742.63
2022-10-19T07:28:53.513Z,101747.97
2022-10-19T07:31:24.819Z,101746.06
2022-10-19T07:33:54.843Z,101752.06
2022-10-19T07:36:23.901Z,101756.50
2022-10-19T07:38:53.038Z,101752.97
2022-10-19T07:41:23.897Z,101754.12
2022-10-19T07:43:52.986Z,101752.88
2022-10-19T07:46:25.480Z,101753.38
2022-10-19T07:48:54.347Z,101748.97
2022-10-19T07:51:23.921Z,101754.12
2022-10-19T07:53:52.709Z,101747.44
2022-10-19T07:56:23.384Z,101751.06
2022-10-19T07:58:54.081Z,101748.28
2022-10-19T08:01:25.700Z,101760.44
2022-10-19T08:06:44.036Z,101766.56
2022-10-19T08:09:27.624Z,101759.06
2022-10-19T08:12:01.760Z,101758.81
2022-10-19T08:14:30.606Z,101762.66
2022-10-19T08:17:00.871Z,101762.16
2022-10-19T08:19:29.971Z,101765.41
2022-10-19T08:21:58.696Z,101768.25
2022-10-19T08:24:27.151Z,101765.81
2022-10-19T08:26:56.379Z,101776.75
2022-10-19T08:29:27.781Z,101763.25
2022-10-19T08:32:00.945Z,101772.19
2022-10-19T08:34:33.482Z,101762.28
2022-10-19T08:37:10.265Z,101765.44
2022-10-19T08:39:48.620Z,101766.16
2022-10-19T08:42:22.571Z,101764.41
2022-10-19T08:45:03.799Z,101767.44
2022-10-19T08:47:46.396Z,101763.69
2022-10-19T08:50:22.108Z,101758.59
2022-10-19T08:52:56.358Z,101755.66
2022-10-19T08:55:34.361Z,101758.06
2022-10-19T08:58:17.347Z,101755.87
2022-10-19T09:00:53.708Z,101756.09
2022-10-19T09:03:37.673Z,101758.13
2022-10-19T09:06:23.830Z,101759.78
2022-10-19T09:08:54.532Z,101758.81
2022-10-19T09:11:26.006Z,101765.78
2022-10-19T09:14:05.830Z,101757.12
2022-10-19T09:16:36.153Z,101762.47
2022-10-19T09:19:14.429Z,101764.81
2022-10-19T09:21:48.051Z,101765.50
2022-10-19T09:24:28.516Z,101763.78
2022-10-19T09:26:59.248Z,101766.91
2022-10-19T09:29:33.234Z,101766.16
2022-10-19T09:32:04.722Z,101754.97
2022-10-19T09:34:37.669Z,101767.88
2022-10-19T09:37:06.010Z,101769.56
2022-10-19T09:39:35.355Z,101770.25
2022-10-19T09:42:12.155Z,101769.91
2022-10-19T09:44:40.923Z,101770.34
2022-10-19T09:47:27.954Z,101771.09
2022-10-19T09:50:10.491Z,101775.41
2022-10-19T09:52:41.018Z,101766.78
2022-10-19T09:55:24.193Z,101770.88
2022-10-19T09:58:00.866Z,101771.97
2022-10-19T10:00:36.107Z,101770.75
2022-10-19T10:03:06.331Z,101770.13
2022-10-19T10:05:38.378Z,101773.47
2022-10-19T10:08:14.774Z,101765.28
2022-10-19T10:10:46.839Z,101772.94
2022-10-19T10:13:19.016Z,101778.44
2022-10-19T10:15:50.771Z,101771.63
2022-10-19T10:18:20.381Z,101777.50
2022-10-19T10:21:04.780Z,101779.88
2022-10-19T10:23:36.502Z,101777.19
2022-10-19T10:26:06.865Z,101772.75
2022-10-19T10:28:35.298Z,101776.22
2022-10-19T10:31:06.960Z,101776.53
2022-10-19T10:33:44.949Z,101770.00
2022-10-19T10:36:15.698Z,101777.19
2022-10-19T10:38:47.252Z,101773.56
2022-10-19T10:41:18.013Z,101777.75
2022-10-19T10:43:58.426Z,101773.22
2022-10-19T10:46:34.204Z,101777.09
2022-10-19T10:49:05.287Z,101781.69
2022-10-19T10:51:40.132Z,101772.09
2022-10-19T10:54:17.019Z,101768.75
2022-10-19T10:56:57.310Z,101769.91
2022-10-19T10:59:31.482Z,101776.81
2022-10-19T11:02:03.994Z,101774.03
2022-10-19T11:04:37.972Z,101768.06
2022-10-19T11:07:17.928Z,101775.09
2022-10-19T11:09:52.487Z,101769.41
2022-10-19T11:12:35.057Z,101775.56
2022-10-19T11:15:13.203Z,101772.09
2022-10-19T11:17:56.600Z,101765.66
2022-10-19T11:20:28.713Z,101765.56
2022-10-19T11:23:07.654Z,101768.53
2022-10-19T11:25:49.549Z,101763.25
2022-10-19T11:28:32.029Z,101761.09
2022-10-19T11:31:07.849Z,101754.88
2022-10-19T11:33:52.051Z,101757.69
2022-10-19T11:36:35.039Z,101757.69
2022-10-19T11:39:22.894Z,101755.97
2022-10-19T11:42:01.848Z,101761.34
2022-10-19T11:44:42.828Z,101754.19
2022-10-19T11:47:29.364Z,101751.47
2022-10-19T11:50:11.011Z,101755.50
2022-10-19T11:52:49.874Z,101751.78
2022-10-19T11:55:33.898Z,101754.53
2022-10-19T11:58:14.805Z,101747.44
2022-10-19T12:00:50.227Z,101753.25
2022-10-19T12:04:01.438Z,101757.03
2022-10-19T12:06:36.583Z,101739.72
2022-10-19T12:09:16.413Z,101744.56
2022-10-19T12:12:00.673Z,101741.66
2022-10-19T12:14:33.127Z,101736.41
2022-10-19T12:17:10.309Z,101730.91
2022-10-19T12:19:44.547Z,101727.59
2022-10-19T12:22:18.055Z,101712.09
2022-10-19T12:24:46.579Z,101718.09
2022-10-19T12:27:18.443Z,101710.28
2022-10-19T12:29:50.737Z,101715.53
2022-10-19T12:32:23.707Z,101724.06
2022-10-19T12:35:00.394Z,101723.28
2022-10-19T12:37:36.151Z,101715.25
2022-10-19T12:40:12.093Z,101713.53
2022-10-19T12:42:52.808Z,101711.59
2022-10-19T12:45:30.876Z,101702.34
2022-10-19T12:48:22.430Z,101702.22
2022-10-19T12:51:17.300Z,101688.91
2022-10-19T12:53:49.455Z,101687.69
2022-10-19T12:56:21.677Z,101688.66
2022-10-19T12:58:56.552Z,101688.91
2022-10-19T13:01:28.869Z,101681.66
2022-10-19T13:04:11.222Z,101682.13
2022-10-19T13:06:44.438Z,101675.97
2022-10-19T13:09:25.686Z,101680.84
2022-10-19T13:12:28.259Z,101682.38
2022-10-19T13:14:59.763Z,101687.03
2022-10-19T13:17:44.109Z,101682.84
2022-10-19T13:20:53.220Z,101686.78
2022-10-19T13:23:42.924Z,101684.41
2022-10-19T13:26:34.006Z,101688.22
2022-10-19T13:29:02.797Z,101683.03
2022-10-19T13:31:34.099Z,101688.16
2022-10-19T13:34:11.975Z,101686.97
2022-10-19T13:36:40.477Z,101689.19
2022-10-19T13:39:16.549Z,101682.38
2022-10-19T13:41:56.435Z,101688.16
2022-10-19T13:44:33.833Z,101685.66
2022-10-19T13:47:28.432Z,101690.81
2022-10-19T13:50:36.901Z,101693.25
2022-10-19T13:53:29.668Z,101692.31
2022-10-19T13:56:24.049Z,101691.78
2022-10-19T13:59:28.095Z,101688.47
2022-10-19T14:02:20.287Z,101686.75
2022-10-19T14:05:01.554Z,101682.41
2022-10-19T14:07:40.255Z,101673.63
2022-10-19T14:10:14.284Z,101669.09
2022-10-19T14:12:45.068Z,101664.69
2022-10-19T14:15:22.528Z,101660.53
2022-10-19T14:17:52.134Z,101656.13
2022-10-19T14:20:28.922Z,101662.59
2022-10-19T14:22:57.305Z,101663.81
2022-10-19T14:25:28.046Z,101656.94
2022-10-19T14:28:01.026Z,101658.03
2022-10-19T14:30:32.384Z,101660.34
2022-10-19T14:33:07.607Z,101655.28
2022-10-19T14:35:38.855Z,101659.31
2022-10-19T14:38:09.386Z,101653.41
2022-10-19T14:40:41.454Z,101662.69
2022-10-19T14:43:26.520Z,101660.31
2022-10-19T14:46:11.746Z,101657.47
2022-10-19T14:48:42.960Z,101657.16
2022-10-19T14:51:23.355Z,101659.34
2022-10-19T14:53:55.273Z,101651.53
2022-10-19T14:56:29.475Z,101655.06
2022-10-19T14:59:01.043Z,101651.53
2022-10-19T15:01:29.569Z,101651.72
2022-10-19T15:03:59.249Z,101656.38
2022-10-19T15:06:30.596Z,101646.59
2022-10-19T15:09:02.208Z,101647.78
2022-10-19T15:11:34.121Z,101647.13
2022-10-19T15:14:06.500Z,101649.19
2022-10-19T15:16:43.679Z,101642.22
2022-10-19T15:19:28.689Z,101640.81
2022-10-19T15:22:19.879Z,101641.16
2022-10-19T15:25:03.770Z,101650.28
2022-10-19T15:27:34.445Z,101637.94
2022-10-19T15:30:06.388Z,101634.75
2022-10-19T15:32:37.715Z,101640.41
2022-10-19T15:35:13.577Z,101645.16
2022-10-19T15:37:44.658Z,101641.81
2022-10-19T15:40:20.495Z,101637.66
2022-10-19T15:42:49.277Z,101628.12
2022-10-19T15:45:36.009Z,101632.81
2022-10-19T15:48:50.033Z,101627.69
2022-10-19T15:51:46.329Z,101622.53
2022-10-19T15:54:19.216Z,101624.78
2022-10-19T15:56:52.948Z,101625.78
2022-10-19T15:59:23.863Z,101625.22
2022-10-19T16:01:55.147Z,101619.38
2022-10-19T16:04:24.518Z,101627.66
2022-10-19T16:06:54.130Z,101627.13
2022-10-19T16:09:23.222Z,101621.22
2022-10-19T16:11:56.710Z,101625.25
2022-10-19T16:14:26.480Z,101627.81
2022-10-19T16:17:03.718Z,101618.50
2022-10-19T16:19:31.942Z,101622.66
2022-10-19T16:22:01.921Z,101624.13
2022-10-19T16:24:30.306Z,101627.88
2022-10-19T16:26:58.717Z,101625.41
2022-10-19T16:29:28.996Z,101629.34
2022-10-19T16:31:57.563Z,101637.41
2022-10-19T16:34:25.924Z,101628.50
2022-10-19T16:36:54.889Z,101633.75
2022-10-19T16:39:25.583Z,101629.25
2022-10-19T16:41:54.014Z,101626.78
2022-10-19T16:44:22.778Z,101628.62
2022-10-19T16:46:51.197Z,101625.16
2022-10-19T16:49:19.298Z,101630.06
2022-10-19T16:51:48.519Z,101629.41
2022-10-19T16:54:17.689Z,101640.31
2022-10-19T16:56:49.036Z,101631.81
2022-10-19T16:59:19.277Z,101632.59
2022-10-19T17:01:48.027Z,101635.88
2022-10-19T17:04:17.993Z,101631.97
2022-10-19T17:06:46.582Z,101627.41
2022-10-19T17:09:40.228Z,101629.69
2022-10-19T17:12:05.249Z,101635.81
2022-10-19T17:14:33.703Z,101630.19
2022-10-19T17:17:01.995Z,101625.53
2022-10-19T17:19:30.673Z,101636.03
2022-10-19T17:21:59.698Z,101635.72
2022-10-19T17:24:28.056Z,101634.72
2022-10-19T17:26:56.764Z,101633.47
2022-10-19T17:29:26.384Z,101630.56
2022-10-19T17:31:54.885Z,101639.12
2022-10-19T17:34:23.837Z,101632.63
2022-10-19T17:36:52.232Z,101626.87
2022-10-19T17:39:25.840Z,101631.97
2022-10-19T17:42:02.124Z,101632.69
2022-10-19T17:44:32.533Z,101635.03
2022-10-19T17:47:02.241Z,101637.16
2022-10-19T17:49:30.558Z,101628.69
2022-10-19T17:51:59.629Z,101629.97
2022-10-19T17:54:28.620Z,101628.53
2022-10-19T17:56:56.934Z,101630.69
2022-10-19T17:59:34.646Z,101632.00
2022-10-19T18:02:07.536Z,101625.25
2022-10-19T18:07:04.208Z,101633.13
2022-10-19T18:09:32.536Z,101629.03
2022-10-19T18:12:04.914Z,101631.91
2022-10-19T18:14:35.689Z,101630.47
2022-10-19T18:17:05.695Z,101628.97
2022-10-19T18:19:34.152Z,101629.22
2022-10-19T18:22:02.453Z,101631.34
2022-10-19T18:24:32.405Z,101627.16
2022-10-19T18:27:00.750Z,101628.41
2022-10-19T18:29:29.449Z,101624.31
2022-10-19T18:31:58.100Z,101622.00
2022-10-19T18:34:27.982Z,101624.03
2022-10-19T18:36:56.247Z,101627.88
2022-10-19T18:39:24.859Z,101628.00
2022-10-19T18:41:54.628Z,101632.72
2022-10-19T18:44:26.976Z,101628.56
2022-10-19T18:46:56.855Z,101615.63
2022-10-19T18:49:25.321Z,101615.78
2022-10-19T18:51:55.984Z,101612.50
2022-10-19T18:54:26.395Z,101615.38
2022-10-19T18:56:55.452Z,101616.50
2022-10-19T18:59:24.470Z,101602.53
2022-10-19T19:01:53.630Z,101604.59
2022-10-19T19:04:22.059Z,101609.25
2022-10-19T19:06:50.546Z,101606.84
2022-10-19T19:09:21.387Z,101609.72
2022-10-19T19:11:50.120Z,101608.41
2022-10-19T19:14:21.540Z,101600.72
2022-10-19T19:16:49.912Z,101608.28
2022-10-19T19:19:20.352Z,101604.03
2022-10-19T19:22:08.694Z,101604.25
2022-10-19T19:24:58.363Z,101601.88
2022-10-19T19:27:45.668Z,101603.03
2022-10-19T19:30:33.921Z,101608.53
2022-10-19T19:33:21.321Z,101611.47
2022-10-19T19:36:10.695Z,101608.12
2022-10-19T19:38:59.189Z,101617.97
2022-10-19T19:41:48.103Z,101613.22
2022-10-19T19:44:35.397Z,101610.81
2022-10-19T19:47:22.506Z,101619.97
2022-10-19T19:50:10.335Z,101613.03
2022-10-19T19:52:59.391Z,101608.19
2022-10-19T19:55:47.842Z,101611.16
2022-10-19T19:58:37.298Z,101608.66
2022-10-19T20:01:24.759Z,101613.31
2022-10-19T20:04:13.056Z,101607.84
2022-10-19T20:07:00.168Z,101604.41
2022-10-19T20:09:48.205Z,101613.31
2022-10-19T20:12:35.122Z,101611.66
2022-10-19T20:15:23.442Z,101611.59
2022-10-19T20:18:10.768Z,101612.63
2022-10-19T20:21:02.161Z,101614.84
2022-10-19T20:23:49.330Z,101616.13
2022-10-19T20:26:36.959Z,101613.56
2022-10-19T20:29:23.979Z,101611.94
2022-10-19T20:32:12.250Z,101603.09
2022-10-19T20:34:59.267Z,101611.31
2022-10-19T20:37:49.390Z,101602.56
2022-10-19T20:40:40.764Z,101599.13
2022-10-19T20:43:27.814Z,101603.72
2022-10-19T20:46:17.746Z,101602.84
2022-10-19T20:49:07.504Z,101593.28
2022-10-19T20:51:54.995Z,101600.59
2022-10-19T20:54:41.989Z,101604.19
2022-10-19T20:57:29.080Z,101600.91
2022-10-19T21:00:17.184Z,101594.88
2022-10-19T21:03:04.238Z,101599.41
2022-10-19T21:05:52.807Z,101593.25
2022-10-19T21:08:39.779Z,101595.78
2022-10-19T21:11:29.442Z,101584.50
2022-10-19T21:14:18.533Z,101582.91
2022-10-19T21:17:07.415Z,101575.06
2022-10-19T21:19:57.216Z,101577.00
2022-10-19T21:22:46.138Z,101568.34
2022-10-19T21:25:32.846Z,101568.53
2022-10-19T21:28:19.759Z,101566.88
2022-10-19T21:31:08.105Z,101565.41
2022-10-19T21:33:56.156Z,101566.47
2022-10-19T21:36:43.131Z,101554.06
2022-10-19T21:39:31.679Z,101560.28
2022-10-19T21:42:18.588Z,101562.06
2022-10-19T21:45:25.681Z,101556.81
2022-10-19T21:48:13.898Z,101564.03
2022-10-19T21:51:13.887Z,101558.19
2022-10-19T21:54:00.686Z,101550.50
2022-10-19T21:56:50.073Z,101546.16
2022-10-19T21:59:37.076Z,101547.16
2022-10-19T22:02:24.150Z,101549.19
2022-10-19T22:05:11.898Z,101550.19
2022-10-19T22:07:59.192Z,101549.50
2022-10-19T22:10:46.304Z,101553.94
2022-10-19T22:13:35.841Z,101556.59
2022-10-19T22:16:24.145Z,101545.13
2022-10-19T22:19:12.166Z,101544.22
2022-10-19T22:21:59.993Z,101542.53
2022-10-19T22:24:47.082Z,101539.16
2022-10-19T22:27:35.312Z,101537.34
2022-10-19T22:30:23.579Z,101534.72
2022-10-19T22:33:10.793Z,101530.41
2022-10-19T22:36:00.292Z,101530.62
2022-10-19T22:38:47.464Z,101536.91
2022-10-19T22:41:34.649Z,101537.41
2022-10-19T22:44:21.714Z,101527.47
2022-10-19T22:47:10.206Z,101538.00
2022-10-19T22:49:57.122Z,101534.81
2022-10-19T22:52:44.181Z,101530.66
2022-10-19T22:55:31.071Z,101527.03
2022-10-19T22:58:18.991Z,101524.22
2022-10-19T23:01:08.351Z,101515.22
2022-10-19T23:03:57.010Z,101519.53
2022-10-19T23:06:44.251Z,101509.72
2022-10-19T23:09:31.136Z,101510.56
2022-10-19T23:12:18.294Z,101502.53
2022-10-19T23:15:05.641Z,101506.97
2022-10-19T23:17:52.448Z,101493.75
2022-10-19T23:20:41.027Z,101491.94
2022-10-19T23:23:29.344Z,101480.56
2022-10-19T23:26:17.989Z,101474.41
2022-10-19T23:29:04.882Z,101472.66
2022-10-19T23:31:51.789Z,101471.78
2022-10-19T23:34:41.056Z,101477.06
2022-10-19T23:37:31.688Z,101477.91
2022-10-19T23:40:19.036Z,101483.25
2022-10-19T23:43:06.138Z,101480.59
2022-10-19T23:45:53.196Z,101488.59
2022-10-19T23:48:39.801Z,101487.75
2022-10-19T23:51:26.990Z,101487.75
2022-10-19T23:54:15.466Z,101481.59
2022-10-19T23:57:02.610Z,101483.25
2022-10-19T23:59:49.552Z,101479.72
